sensor_id;sensor_type;location;lat;lon;timestamp;temperature;humidity
67901;DHT22;54700;51.796;10.956;2024-03-29T00:02:04;6.70;82.50
67901;DHT22;54700;51.796;10.956;2024-03-29T00:04:30;6.60;82.50
67901;DHT22;54700;51.796;10.956;2024-03-29T00:06:58;6.60;82.70
67901;DHT22;54700;51.796;10.956;2024-03-29T00:09:23;6.60;83.00
67901;DHT22;54700;51.796;10.956;2024-03-29T00:11:50;6.50;82.80
67901;DHT22;54700;51.796;10.956;2024-03-29T00:14:16;6.50;82.80
67901;DHT22;54700;51.796;10.956;2024-03-29T00:16:43;6.50;83.30
67901;DHT22;54700;51.796;10.956;2024-03-29T00:19:09;6.50;83.30
67901;DHT22;54700;51.796;10.956;2024-03-29T00:21:37;6.40;83.60
67901;DHT22;54700;51.796;10.956;2024-03-29T00:24:05;6.40;83.50
67901;DHT22;54700;51.796;10.956;2024-03-29T00:26:32;6.30;83.60
67901;DHT22;54700;51.796;10.956;2024-03-29T00:28:58;6.30;84.00
67901;DHT22;54700;51.796;10.956;2024-03-29T00:31:24;6.20;84.20
67901;DHT22;54700;51.796;10.956;2024-03-29T00:33:51;6.20;84.50
67901;DHT22;54700;51.796;10.956;2024-03-29T00:36:17;6.10;84.50
67901;DHT22;54700;51.796;10.956;2024-03-29T00:38:44;6.00;85.00
67901;DHT22;54700;51.796;10.956;2024-03-29T00:41:11;6.00;86.20
67901;DHT22;54700;51.796;10.956;2024-03-29T00:43:39;5.90;85.80
67901;DHT22;54700;51.796;10.956;2024-03-29T00:46:06;5.80;86.00
67901;DHT22;54700;51.796;10.956;2024-03-29T00:48:32;5.70;86.40
67901;DHT22;54700;51.796;10.956;2024-03-29T00:50:58;5.70;86.90
67901;DHT22;54700;51.796;10.956;2024-03-29T00:53:25;5.60;87.50
67901;DHT22;54700;51.796;10.956;2024-03-29T00:55:51;5.50;88.90
67901;DHT22;54700;51.796;10.956;2024-03-29T00:58:19;5.40;89.00
67901;DHT22;54700;51.796;10.956;2024-03-29T01:00:46;5.30;90.10
67901;DHT22;54700;51.796;10.956;2024-03-29T01:03:12;5.30;90.40
67901;DHT22;54700;51.796;10.956;2024-03-29T01:05:39;5.20;91.00
67901;DHT22;54700;51.796;10.956;2024-03-29T01:08:05;5.10;91.10
67901;DHT22;54700;51.796;10.956;2024-03-29T01:10:32;5.00;91.20
67901;DHT22;54700;51.796;10.956;2024-03-29T01:12:58;4.90;92.00
67901;DHT22;54700;51.796;10.956;2024-03-29T01:15:27;4.90;91.90
67901;DHT22;54700;51.796;10.956;2024-03-29T01:17:53;4.70;91.90
67901;DHT22;54700;51.796;10.956;2024-03-29T01:20:19;4.70;92.10
67901;DHT22;54700;51.796;10.956;2024-03-29T01:22:46;4.60;92.30
67901;DHT22;54700;51.796;10.956;2024-03-29T01:25:12;4.50;93.00
67901;DHT22;54700;51.796;10.956;2024-03-29T01:27:38;4.40;92.60
67901;DHT22;54700;51.796;10.956;2024-03-29T01:30:05;4.30;93.20
67901;DHT22;54700;51.796;10.956;2024-03-29T01:32:33;4.30;93.40
67901;DHT22;54700;51.796;10.956;2024-03-29T01:35:00;4.30;93.30
67901;DHT22;54700;51.796;10.956;2024-03-29T01:37:26;4.20;93.70
67901;DHT22;54700;51.796;10.956;2024-03-29T01:39:52;4.20;94.00
67901;DHT22;54700;51.796;10.956;2024-03-29T01:42:19;4.10;94.40
67901;DHT22;54700;51.796;10.956;2024-03-29T01:44:46;4.10;94.10
67901;DHT22;54700;51.796;10.956;2024-03-29T01:47:13;4.10;93.90
67901;DHT22;54700;51.796;10.956;2024-03-29T01:49:42;4.10;93.90
67901;DHT22;54700;51.796;10.956;2024-03-29T01:52:10;4.10;94.00
67901;DHT22;54700;51.796;10.956;2024-03-29T01:54:39;4.00;93.90
67901;DHT22;54700;51.796;10.956;2024-03-29T01:57:06;4.00;94.60
67901;DHT22;54700;51.796;10.956;2024-03-29T01:59:33;4.00;94.40
67901;DHT22;54700;51.796;10.956;2024-03-29T02:02:01;4.00;94.20
67901;DHT22;54700;51.796;10.956;2024-03-29T02:04:29;4.00;94.10
67901;DHT22;54700;51.796;10.956;2024-03-29T02:06:58;4.00;94.10
67901;DHT22;54700;51.796;10.956;2024-03-29T02:09:24;3.90;94.20
67901;DHT22;54700;51.796;10.956;2024-03-29T02:11:51;3.90;94.80
67901;DHT22;54700;51.796;10.956;2024-03-29T02:14:19;3.90;94.40
67901;DHT22;54700;51.796;10.956;2024-03-29T02:16:47;3.90;94.60
67901;DHT22;54700;51.796;10.956;2024-03-29T02:19:14;3.90;94.70
67901;DHT22;54700;51.796;10.956;2024-03-29T02:21:42;3.90;94.50
67901;DHT22;54700;51.796;10.956;2024-03-29T02:24:13;3.80;94.50
67901;DHT22;54700;51.796;10.956;2024-03-29T02:26:43;3.90;94.80
67901;DHT22;54700;51.796;10.956;2024-03-29T02:29:12;3.90;94.40
67901;DHT22;54700;51.796;10.956;2024-03-29T02:31:39;4.10;93.60
67901;DHT22;54700;51.796;10.956;2024-03-29T02:34:06;4.30;92.70
67901;DHT22;54700;51.796;10.956;2024-03-29T02:36:34;4.60;91.70
67901;DHT22;54700;51.796;10.956;2024-03-29T02:39:01;4.80;90.70
67901;DHT22;54700;51.796;10.956;2024-03-29T02:41:32;5.00;89.70
67901;DHT22;54700;51.796;10.956;2024-03-29T02:43:59;5.20;88.20
67901;DHT22;54700;51.796;10.956;2024-03-29T02:46:27;5.40;87.30
67901;DHT22;54700;51.796;10.956;2024-03-29T02:48:54;5.40;86.50
67901;DHT22;54700;51.796;10.956;2024-03-29T02:51:20;5.50;85.90
67901;DHT22;54700;51.796;10.956;2024-03-29T02:53:47;5.60;85.80
67901;DHT22;54700;51.796;10.956;2024-03-29T02:56:13;5.60;84.70
67901;DHT22;54700;51.796;10.956;2024-03-29T02:58:45;5.60;84.30
67901;DHT22;54700;51.796;10.956;2024-03-29T03:01:11;5.70;83.80
67901;DHT22;54700;51.796;10.956;2024-03-29T03:03:38;5.70;83.60
67901;DHT22;54700;51.796;10.956;2024-03-29T03:06:04;5.80;83.10
67901;DHT22;54700;51.796;10.956;2024-03-29T03:08:31;5.80;82.60
67901;DHT22;54700;51.796;10.956;2024-03-29T03:11:15;5.90;82.90
67901;DHT22;54700;51.796;10.956;2024-03-29T03:13:43;5.90;81.80
67901;DHT22;54700;51.796;10.956;2024-03-29T03:16:11;5.90;81.20
67901;DHT22;54700;51.796;10.956;2024-03-29T03:18:38;6.00;81.40
67901;DHT22;54700;51.796;10.956;2024-03-29T03:21:05;6.00;80.70
67901;DHT22;54700;51.796;10.956;2024-03-29T03:23:31;6.00;80.20
67901;DHT22;54700;51.796;10.956;2024-03-29T03:25:58;6.00;80.20
67901;DHT22;54700;51.796;10.956;2024-03-29T03:28:26;6.10;79.30
67901;DHT22;54700;51.796;10.956;2024-03-29T03:30:53;6.20;78.70
67901;DHT22;54700;51.796;10.956;2024-03-29T03:33:21;6.20;78.10
67901;DHT22;54700;51.796;10.956;2024-03-29T03:35:48;6.20;78.00
67901;DHT22;54700;51.796;10.956;2024-03-29T03:38:15;6.30;77.30
67901;DHT22;54700;51.796;10.956;2024-03-29T03:40:42;6.30;77.70
67901;DHT22;54700;51.796;10.956;2024-03-29T03:43:08;6.30;76.60
67901;DHT22;54700;51.796;10.956;2024-03-29T03:45:36;6.30;76.40
67901;DHT22;54700;51.796;10.956;2024-03-29T03:48:05;6.40;76.20
67901;DHT22;54700;51.796;10.956;2024-03-29T03:50:35;6.40;76.50
67901;DHT22;54700;51.796;10.956;2024-03-29T03:53:01;6.30;76.20
67901;DHT22;54700;51.796;10.956;2024-03-29T03:55:28;6.30;76.30
67901;DHT22;54700;51.796;10.956;2024-03-29T03:57:54;6.30;76.40
67901;DHT22;54700;51.796;10.956;2024-03-29T04:00:22;6.30;76.40
67901;DHT22;54700;51.796;10.956;2024-03-29T04:02:48;6.20;76.70
67901;DHT22;54700;51.796;10.956;2024-03-29T04:05:15;6.20;77.00
67901;DHT22;54700;51.796;10.956;2024-03-29T04:07:43;6.20;76.40
67901;DHT22;54700;51.796;10.956;2024-03-29T04:10:10;6.20;76.70
67901;DHT22;54700;51.796;10.956;2024-03-29T04:12:37;6.30;76.80
67901;DHT22;54700;51.796;10.956;2024-03-29T04:15:04;6.20;76.90
67901;DHT22;54700;51.796;10.956;2024-03-29T04:17:31;6.20;76.80
67901;DHT22;54700;51.796;10.956;2024-03-29T04:19:59;6.20;77.10
67901;DHT22;54700;51.796;10.956;2024-03-29T04:22:27;6.20;77.50
67901;DHT22;54700;51.796;10.956;2024-03-29T04:24:55;6.10;77.60
67901;DHT22;54700;51.796;10.956;2024-03-29T04:27:22;6.10;78.10
67901;DHT22;54700;51.796;10.956;2024-03-29T04:29:50;6.10;77.80
67901;DHT22;54700;51.796;10.956;2024-03-29T04:32:16;6.10;77.70
67901;DHT22;54700;51.796;10.956;2024-03-29T04:34:46;6.10;78.30
67901;DHT22;54700;51.796;10.956;2024-03-29T04:37:12;6.10;78.60
67901;DHT22;54700;51.796;10.956;2024-03-29T04:39:39;6.10;78.40
67901;DHT22;54700;51.796;10.956;2024-03-29T04:42:09;6.10;78.70
67901;DHT22;54700;51.796;10.956;2024-03-29T04:44:36;6.10;78.30
67901;DHT22;54700;51.796;10.956;2024-03-29T04:47:03;6.10;78.10
67901;DHT22;54700;51.796;10.956;2024-03-29T04:49:30;6.20;78.20
67901;DHT22;54700;51.796;10.956;2024-03-29T04:51:58;6.20;77.90
67901;DHT22;54700;51.796;10.956;2024-03-29T04:54:26;6.20;77.20
67901;DHT22;54700;51.796;10.956;2024-03-29T04:56:53;6.30;77.10
67901;DHT22;54700;51.796;10.956;2024-03-29T04:59:21;6.30;77.10
67901;DHT22;54700;51.796;10.956;2024-03-29T05:01:48;6.40;77.10
67901;DHT22;54700;51.796;10.956;2024-03-29T05:04:16;6.40;77.40
67901;DHT22;54700;51.796;10.956;2024-03-29T05:06:50;6.40;77.30
67901;DHT22;54700;51.796;10.956;2024-03-29T05:09:17;6.40;77.20
67901;DHT22;54700;51.796;10.956;2024-03-29T05:11:44;6.40;76.60
67901;DHT22;54700;51.796;10.956;2024-03-29T05:14:12;6.50;76.60
67901;DHT22;54700;51.796;10.956;2024-03-29T05:16:40;6.60;76.40
67901;DHT22;54700;51.796;10.956;2024-03-29T05:19:07;6.60;76.50
67901;DHT22;54700;51.796;10.956;2024-03-29T05:21:34;6.60;77.40
67901;DHT22;54700;51.796;10.956;2024-03-29T05:24:01;6.60;77.20
67901;DHT22;54700;51.796;10.956;2024-03-29T05:26:28;6.60;76.80
67901;DHT22;54700;51.796;10.956;2024-03-29T05:28:56;6.60;77.10
67901;DHT22;54700;51.796;10.956;2024-03-29T05:31:24;6.70;78.00
67901;DHT22;54700;51.796;10.956;2024-03-29T05:33:52;6.60;78.00
67901;DHT22;54700;51.796;10.956;2024-03-29T05:36:19;6.60;78.70
67901;DHT22;54700;51.796;10.956;2024-03-29T05:38:47;6.50;79.90
67901;DHT22;54700;51.796;10.956;2024-03-29T05:41:14;6.50;80.60
67901;DHT22;54700;51.796;10.956;2024-03-29T05:43:41;6.50;81.00
67901;DHT22;54700;51.796;10.956;2024-03-29T05:46:08;6.50;81.80
67901;DHT22;54700;51.796;10.956;2024-03-29T05:48:35;6.50;81.30
67901;DHT22;54700;51.796;10.956;2024-03-29T05:51:03;6.50;81.00
67901;DHT22;54700;51.796;10.956;2024-03-29T05:53:31;6.50;81.70
67901;DHT22;54700;51.796;10.956;2024-03-29T05:55:58;6.50;81.90
67901;DHT22;54700;51.796;10.956;2024-03-29T05:58:25;6.50;82.60
67901;DHT22;54700;51.796;10.956;2024-03-29T06:00:52;6.50;83.90
67901;DHT22;54700;51.796;10.956;2024-03-29T06:03:19;6.50;84.40
67901;DHT22;54700;51.796;10.956;2024-03-29T06:05:46;6.50;84.20
67901;DHT22;54700;51.796;10.956;2024-03-29T06:08:14;6.50;82.70
67901;DHT22;54700;51.796;10.956;2024-03-29T06:10:41;6.50;83.40
67901;DHT22;54700;51.796;10.956;2024-03-29T06:13:08;6.50;84.20
67901;DHT22;54700;51.796;10.956;2024-03-29T06:15:53;6.50;82.40
67901;DHT22;54700;51.796;10.956;2024-03-29T06:18:45;6.60;83.20
67901;DHT22;54700;51.796;10.956;2024-03-29T06:21:12;6.60;83.10
67901;DHT22;54700;51.796;10.956;2024-03-29T06:23:41;6.60;83.40
67901;DHT22;54700;51.796;10.956;2024-03-29T06:26:08;6.60;84.00
67901;DHT22;54700;51.796;10.956;2024-03-29T06:28:35;6.70;83.50
67901;DHT22;54700;51.796;10.956;2024-03-29T06:31:02;6.70;81.50
67901;DHT22;54700;51.796;10.956;2024-03-29T06:33:29;6.80;81.50
67901;DHT22;54700;51.796;10.956;2024-03-29T06:35:56;6.80;81.30
67901;DHT22;54700;51.796;10.956;2024-03-29T06:38:23;6.90;82.00
67901;DHT22;54700;51.796;10.956;2024-03-29T06:40:51;6.90;81.50
67901;DHT22;54700;51.796;10.956;2024-03-29T06:43:18;6.90;80.50
67901;DHT22;54700;51.796;10.956;2024-03-29T06:45:45;6.90;81.20
67901;DHT22;54700;51.796;10.956;2024-03-29T06:48:12;7.00;82.30
67901;DHT22;54700;51.796;10.956;2024-03-29T06:50:40;7.00;82.20
67901;DHT22;54700;51.796;10.956;2024-03-29T06:53:08;7.00;82.90
67901;DHT22;54700;51.796;10.956;2024-03-29T06:55:35;7.00;82.60
67901;DHT22;54700;51.796;10.956;2024-03-29T06:58:04;7.00;83.40
67901;DHT22;54700;51.796;10.956;2024-03-29T07:00:32;7.00;83.50
67901;DHT22;54700;51.796;10.956;2024-03-29T07:02:59;7.10;83.40
67901;DHT22;54700;51.796;10.956;2024-03-29T07:05:26;7.10;83.90
67901;DHT22;54700;51.796;10.956;2024-03-29T07:07:53;7.20;84.60
67901;DHT22;54700;51.796;10.956;2024-03-29T07:10:21;7.30;85.00
67901;DHT22;54700;51.796;10.956;2024-03-29T07:12:48;7.40;86.50
67901;DHT22;54700;51.796;10.956;2024-03-29T07:15:16;7.40;86.90
67901;DHT22;54700;51.796;10.956;2024-03-29T07:17:43;7.50;87.50
67901;DHT22;54700;51.796;10.956;2024-03-29T07:20:10;7.50;87.30
67901;DHT22;54700;51.796;10.956;2024-03-29T07:22:37;7.50;87.80
67901;DHT22;54700;51.796;10.956;2024-03-29T07:25:05;7.60;87.90
67901;DHT22;54700;51.796;10.956;2024-03-29T07:27:32;7.60;88.40
67901;DHT22;54700;51.796;10.956;2024-03-29T07:30:00;7.60;89.00
67901;DHT22;54700;51.796;10.956;2024-03-29T07:32:30;7.70;89.00
67901;DHT22;54700;51.796;10.956;2024-03-29T07:34:57;7.70;88.10
67901;DHT22;54700;51.796;10.956;2024-03-29T07:37:25;7.80;88.20
67901;DHT22;54700;51.796;10.956;2024-03-29T07:39:52;7.80;88.30
67901;DHT22;54700;51.796;10.956;2024-03-29T07:42:20;7.80;88.00
67901;DHT22;54700;51.796;10.956;2024-03-29T07:44:49;7.90;88.00
67901;DHT22;54700;51.796;10.956;2024-03-29T07:47:16;7.90;87.60
67901;DHT22;54700;51.796;10.956;2024-03-29T07:49:44;8.00;86.90
67901;DHT22;54700;51.796;10.956;2024-03-29T07:52:11;8.10;85.30
67901;DHT22;54700;51.796;10.956;2024-03-29T07:54:38;8.20;84.40
67901;DHT22;54700;51.796;10.956;2024-03-29T07:57:05;8.30;83.80
67901;DHT22;54700;51.796;10.956;2024-03-29T07:59:34;8.40;83.90
67901;DHT22;54700;51.796;10.956;2024-03-29T08:02:01;8.50;83.00
67901;DHT22;54700;51.796;10.956;2024-03-29T08:04:28;8.60;83.10
67901;DHT22;54700;51.796;10.956;2024-03-29T08:06:57;8.60;82.50
67901;DHT22;54700;51.796;10.956;2024-03-29T08:09:24;8.80;82.30
67901;DHT22;54700;51.796;10.956;2024-03-29T08:11:51;8.80;82.00
67901;DHT22;54700;51.796;10.956;2024-03-29T08:14:17;8.80;81.10
67901;DHT22;54700;51.796;10.956;2024-03-29T08:16:44;8.90;81.90
67901;DHT22;54700;51.796;10.956;2024-03-29T08:19:12;8.90;81.80
67901;DHT22;54700;51.796;10.956;2024-03-29T08:21:42;8.90;81.90
67901;DHT22;54700;51.796;10.956;2024-03-29T08:24:15;8.90;83.00
67901;DHT22;54700;51.796;10.956;2024-03-29T08:26:42;9.00;83.30
67901;DHT22;54700;51.796;10.956;2024-03-29T08:29:12;9.10;82.90
67901;DHT22;54700;51.796;10.956;2024-03-29T08:31:43;9.20;83.50
67901;DHT22;54700;51.796;10.956;2024-03-29T08:34:11;9.40;83.50
67901;DHT22;54700;51.796;10.956;2024-03-29T08:36:39;9.50;83.80
67901;DHT22;54700;51.796;10.956;2024-03-29T08:39:06;9.60;83.20
67901;DHT22;54700;51.796;10.956;2024-03-29T08:41:41;9.60;83.90
67901;DHT22;54700;51.796;10.956;2024-03-29T08:44:11;9.70;83.90
67901;DHT22;54700;51.796;10.956;2024-03-29T08:46:40;9.80;83.90
67901;DHT22;54700;51.796;10.956;2024-03-29T08:49:07;9.80;83.20
67901;DHT22;54700;51.796;10.956;2024-03-29T08:51:38;9.90;83.50
67901;DHT22;54700;51.796;10.956;2024-03-29T08:54:06;10.00;83.30
67901;DHT22;54700;51.796;10.956;2024-03-29T08:56:34;10.00;83.40
67901;DHT22;54700;51.796;10.956;2024-03-29T08:59:04;10.10;83.30
67901;DHT22;54700;51.796;10.956;2024-03-29T09:01:33;10.10;83.70
67901;DHT22;54700;51.796;10.956;2024-03-29T09:04:07;10.10;83.70
67901;DHT22;54700;51.796;10.956;2024-03-29T09:06:36;10.20;83.80
67901;DHT22;54700;51.796;10.956;2024-03-29T09:09:05;10.20;82.70
67901;DHT22;54700;51.796;10.956;2024-03-29T09:11:36;10.30;83.80
67901;DHT22;54700;51.796;10.956;2024-03-29T09:14:05;10.30;84.00
67901;DHT22;54700;51.796;10.956;2024-03-29T09:16:35;10.40;84.30
67901;DHT22;54700;51.796;10.956;2024-03-29T09:19:02;10.60;83.30
67901;DHT22;54700;51.796;10.956;2024-03-29T09:21:33;10.70;82.30
67901;DHT22;54700;51.796;10.956;2024-03-29T09:24:01;10.80;82.30
67901;DHT22;54700;51.796;10.956;2024-03-29T09:26:28;10.60;82.50
67901;DHT22;54700;51.796;10.956;2024-03-29T09:28:59;10.60;83.20
67901;DHT22;54700;51.796;10.956;2024-03-29T09:31:27;10.70;83.20
67901;DHT22;54700;51.796;10.956;2024-03-29T09:33:54;10.70;83.50
67901;DHT22;54700;51.796;10.956;2024-03-29T09:36:23;10.90;83.40
67901;DHT22;54700;51.796;10.956;2024-03-29T09:38:50;10.90;82.80
67901;DHT22;54700;51.796;10.956;2024-03-29T09:41:18;10.90;83.40
67901;DHT22;54700;51.796;10.956;2024-03-29T09:43:45;11.00;83.50
67901;DHT22;54700;51.796;10.956;2024-03-29T09:46:16;11.00;81.60
67901;DHT22;54700;51.796;10.956;2024-03-29T09:48:44;11.00;81.20
67901;DHT22;54700;51.796;10.956;2024-03-29T09:51:13;11.00;81.20
67901;DHT22;54700;51.796;10.956;2024-03-29T09:53:41;11.00;80.60
67901;DHT22;54700;51.796;10.956;2024-03-29T09:56:09;11.10;80.70
67901;DHT22;54700;51.796;10.956;2024-03-29T09:58:37;11.20;81.00
67901;DHT22;54700;51.796;10.956;2024-03-29T10:01:04;11.30;79.40
67901;DHT22;54700;51.796;10.956;2024-03-29T10:03:36;11.40;80.00
67901;DHT22;54700;51.796;10.956;2024-03-29T10:06:07;11.60;79.40
67901;DHT22;54700;51.796;10.956;2024-03-29T10:08:39;11.60;78.00
67901;DHT22;54700;51.796;10.956;2024-03-29T10:11:06;11.70;78.80
67901;DHT22;54700;51.796;10.956;2024-03-29T10:13:34;11.80;78.30
67901;DHT22;54700;51.796;10.956;2024-03-29T10:16:03;11.70;77.50
67901;DHT22;54700;51.796;10.956;2024-03-29T10:18:30;11.80;77.80
67901;DHT22;54700;51.796;10.956;2024-03-29T10:21:00;11.90;77.20
67901;DHT22;54700;51.796;10.956;2024-03-29T10:23:30;11.90;77.40
67901;DHT22;54700;51.796;10.956;2024-03-29T10:25:57;12.00;77.40
67901;DHT22;54700;51.796;10.956;2024-03-29T10:28:27;12.10;77.30
67901;DHT22;54700;51.796;10.956;2024-03-29T10:31:01;12.20;76.00
67901;DHT22;54700;51.796;10.956;2024-03-29T10:33:29;12.30;75.90
67901;DHT22;54700;51.796;10.956;2024-03-29T10:35:56;12.40;75.70
67901;DHT22;54700;51.796;10.956;2024-03-29T10:38:25;12.50;75.80
67901;DHT22;54700;51.796;10.956;2024-03-29T10:40:53;12.60;74.80
67901;DHT22;54700;51.796;10.956;2024-03-29T10:43:21;12.50;72.70
67901;DHT22;54700;51.796;10.956;2024-03-29T10:45:49;12.60;74.60
67901;DHT22;54700;51.796;10.956;2024-03-29T10:48:17;12.60;74.90
67901;DHT22;54700;51.796;10.956;2024-03-29T10:50:48;12.60;74.80
67901;DHT22;54700;51.796;10.956;2024-03-29T10:53:16;12.60;75.00
67901;DHT22;54700;51.796;10.956;2024-03-29T10:55:43;12.70;73.90
67901;DHT22;54700;51.796;10.956;2024-03-29T10:58:12;12.80;75.10
67901;DHT22;54700;51.796;10.956;2024-03-29T11:00:44;12.80;72.70
67901;DHT22;54700;51.796;10.956;2024-03-29T11:03:14;12.90;73.20
67901;DHT22;54700;51.796;10.956;2024-03-29T11:05:47;13.00;73.10
67901;DHT22;54700;51.796;10.956;2024-03-29T11:08:16;13.00;72.60
67901;DHT22;54700;51.796;10.956;2024-03-29T11:10:49;13.00;72.90
67901;DHT22;54700;51.796;10.956;2024-03-29T11:13:23;13.10;72.60
67901;DHT22;54700;51.796;10.956;2024-03-29T11:15:54;13.00;72.50
67901;DHT22;54700;51.796;10.956;2024-03-29T11:18:21;13.10;73.20
67901;DHT22;54700;51.796;10.956;2024-03-29T11:20:50;13.10;73.60
67901;DHT22;54700;51.796;10.956;2024-03-29T11:23:19;13.10;72.80
67901;DHT22;54700;51.796;10.956;2024-03-29T11:25:48;13.10;73.10
67901;DHT22;54700;51.796;10.956;2024-03-29T11:28:23;13.10;74.10
67901;DHT22;54700;51.796;10.956;2024-03-29T11:30:52;13.10;72.90
67901;DHT22;54700;51.796;10.956;2024-03-29T11:33:28;13.10;73.40
67901;DHT22;54700;51.796;10.956;2024-03-29T11:35:57;13.10;72.90
67901;DHT22;54700;51.796;10.956;2024-03-29T11:38:31;13.20;72.20
67901;DHT22;54700;51.796;10.956;2024-03-29T11:41:05;13.10;71.50
67901;DHT22;54700;51.796;10.956;2024-03-29T11:43:43;13.20;71.00
67901;DHT22;54700;51.796;10.956;2024-03-29T11:46:11;13.20;71.80
67901;DHT22;54700;51.796;10.956;2024-03-29T11:48:39;13.30;72.80
67901;DHT22;54700;51.796;10.956;2024-03-29T11:51:07;13.40;71.40
67901;DHT22;54700;51.796;10.956;2024-03-29T11:53:36;13.40;70.60
67901;DHT22;54700;51.796;10.956;2024-03-29T11:56:05;13.50;70.80
67901;DHT22;54700;51.796;10.956;2024-03-29T11:58:32;13.60;70.30
67901;DHT22;54700;51.796;10.956;2024-03-29T12:01:02;13.70;70.00
67901;DHT22;54700;51.796;10.956;2024-03-29T12:03:29;13.80;69.50
67901;DHT22;54700;51.796;10.956;2024-03-29T12:05:57;13.90;68.40
67901;DHT22;54700;51.796;10.956;2024-03-29T12:08:28;14.00;67.60
67901;DHT22;54700;51.796;10.956;2024-03-29T12:10:55;14.10;65.70
67901;DHT22;54700;51.796;10.956;2024-03-29T12:13:23;14.10;66.00
67901;DHT22;54700;51.796;10.956;2024-03-29T12:15:51;14.10;65.00
67901;DHT22;54700;51.796;10.956;2024-03-29T12:18:21;14.00;64.60
67901;DHT22;54700;51.796;10.956;2024-03-29T12:20:49;14.00;63.70
67901;DHT22;54700;51.796;10.956;2024-03-29T12:23:17;13.90;64.10
67901;DHT22;54700;51.796;10.956;2024-03-29T12:25:45;13.90;62.50
67901;DHT22;54700;51.796;10.956;2024-03-29T12:28:14;13.90;64.00
67901;DHT22;54700;51.796;10.956;2024-03-29T12:30:42;13.90;63.70
67901;DHT22;54700;51.796;10.956;2024-03-29T12:33:11;14.00;63.30
67901;DHT22;54700;51.796;10.956;2024-03-29T12:35:42;14.20;62.60
67901;DHT22;54700;51.796;10.956;2024-03-29T12:38:11;14.30;61.30
67901;DHT22;54700;51.796;10.956;2024-03-29T12:40:40;14.40;60.00
67901;DHT22;54700;51.796;10.956;2024-03-29T12:43:09;14.50;59.70
67901;DHT22;54700;51.796;10.956;2024-03-29T12:45:38;14.40;59.40
67901;DHT22;54700;51.796;10.956;2024-03-29T12:48:09;14.50;58.60
67901;DHT22;54700;51.796;10.956;2024-03-29T12:50:36;14.50;59.20
67901;DHT22;54700;51.796;10.956;2024-03-29T12:53:07;14.50;59.00
67901;DHT22;54700;51.796;10.956;2024-03-29T12:55:35;14.60;59.60
67901;DHT22;54700;51.796;10.956;2024-03-29T12:58:04;14.70;58.80
67901;DHT22;54700;51.796;10.956;2024-03-29T13:00:34;14.70;58.80
67901;DHT22;54700;51.796;10.956;2024-03-29T13:03:02;14.80;59.60
67901;DHT22;54700;51.796;10.956;2024-03-29T13:05:30;14.90;59.10
67901;DHT22;54700;51.796;10.956;2024-03-29T13:08:00;14.90;59.30
67901;DHT22;54700;51.796;10.956;2024-03-29T13:10:29;15.00;58.80
67901;DHT22;54700;51.796;10.956;2024-03-29T13:12:57;15.00;58.60
67901;DHT22;54700;51.796;10.956;2024-03-29T13:15:25;15.00;59.60
67901;DHT22;54700;51.796;10.956;2024-03-29T13:17:53;15.00;59.10
67901;DHT22;54700;51.796;10.956;2024-03-29T13:20:21;14.90;59.00
67901;DHT22;54700;51.796;10.956;2024-03-29T13:22:49;14.70;59.80
67901;DHT22;54700;51.796;10.956;2024-03-29T13:25:19;14.60;60.30
67901;DHT22;54700;51.796;10.956;2024-03-29T13:27:48;14.60;61.10
67901;DHT22;54700;51.796;10.956;2024-03-29T13:30:19;14.70;61.20
67901;DHT22;54700;51.796;10.956;2024-03-29T13:32:47;14.70;60.00
67901;DHT22;54700;51.796;10.956;2024-03-29T13:35:16;14.50;61.00
67901;DHT22;54700;51.796;10.956;2024-03-29T13:37:47;14.30;61.30
67901;DHT22;54700;51.796;10.956;2024-03-29T13:40:15;14.20;62.20
67901;DHT22;54700;51.796;10.956;2024-03-29T13:42:43;14.10;62.90
67901;DHT22;54700;51.796;10.956;2024-03-29T13:45:11;13.90;63.40
67901;DHT22;54700;51.796;10.956;2024-03-29T13:47:40;13.90;64.20
67901;DHT22;54700;51.796;10.956;2024-03-29T13:50:09;13.80;64.40
67901;DHT22;54700;51.796;10.956;2024-03-29T13:52:41;13.70;65.60
67901;DHT22;54700;51.796;10.956;2024-03-29T13:55:09;13.60;66.30
67901;DHT22;54700;51.796;10.956;2024-03-29T13:57:36;13.60;66.40
67901;DHT22;54700;51.796;10.956;2024-03-29T14:00:04;13.60;66.30
67901;DHT22;54700;51.796;10.956;2024-03-29T14:02:33;13.60;66.60
67901;DHT22;54700;51.796;10.956;2024-03-29T14:05:00;13.60;67.10
67901;DHT22;54700;51.796;10.956;2024-03-29T14:07:28;13.60;67.50
67901;DHT22;54700;51.796;10.956;2024-03-29T14:09:55;13.70;67.70
67901;DHT22;54700;51.796;10.956;2024-03-29T14:12:23;13.60;67.50
67901;DHT22;54700;51.796;10.956;2024-03-29T14:14:51;13.60;68.10
67901;DHT22;54700;51.796;10.956;2024-03-29T14:17:18;13.60;68.50
67901;DHT22;54700;51.796;10.956;2024-03-29T14:19:48;13.60;68.20
67901;DHT22;54700;51.796;10.956;2024-03-29T14:22:15;13.70;68.90
67901;DHT22;54700;51.796;10.956;2024-03-29T14:24:44;13.70;69.30
67901;DHT22;54700;51.796;10.956;2024-03-29T14:27:12;13.70;69.10
67901;DHT22;54700;51.796;10.956;2024-03-29T14:29:39;13.70;69.40
67901;DHT22;54700;51.796;10.956;2024-03-29T14:32:06;13.80;69.50
67901;DHT22;54700;51.796;10.956;2024-03-29T14:34:33;13.90;69.10
67901;DHT22;54700;51.796;10.956;2024-03-29T14:37:06;13.90;68.70
67901;DHT22;54700;51.796;10.956;2024-03-29T14:39:33;13.90;68.30
67901;DHT22;54700;51.796;10.956;2024-03-29T14:42:00;13.80;68.90
67901;DHT22;54700;51.796;10.956;2024-03-29T14:44:30;13.70;69.30
67901;DHT22;54700;51.796;10.956;2024-03-29T14:46:57;13.70;69.90
67901;DHT22;54700;51.796;10.956;2024-03-29T14:49:24;13.60;70.10
67901;DHT22;54700;51.796;10.956;2024-03-29T14:51:52;13.60;70.40
67901;DHT22;54700;51.796;10.956;2024-03-29T14:54:20;13.50;71.00
67901;DHT22;54700;51.796;10.956;2024-03-29T14:56:46;13.40;70.90
67901;DHT22;54700;51.796;10.956;2024-03-29T14:59:13;13.40;71.40
67901;DHT22;54700;51.796;10.956;2024-03-29T15:01:40;13.20;72.10
67901;DHT22;54700;51.796;10.956;2024-03-29T15:04:08;13.10;72.60
67901;DHT22;54700;51.796;10.956;2024-03-29T15:06:35;13.10;73.10
67901;DHT22;54700;51.796;10.956;2024-03-29T15:09:02;13.10;73.00
67901;DHT22;54700;51.796;10.956;2024-03-29T15:11:30;13.20;73.30
67901;DHT22;54700;51.796;10.956;2024-03-29T15:14:00;13.40;73.10
67901;DHT22;54700;51.796;10.956;2024-03-29T15:16:27;13.50;72.50
67901;DHT22;54700;51.796;10.956;2024-03-29T15:18:54;13.60;72.10
67901;DHT22;54700;51.796;10.956;2024-03-29T15:21:22;13.80;72.00
67901;DHT22;54700;51.796;10.956;2024-03-29T15:23:50;13.80;71.30
67901;DHT22;54700;51.796;10.956;2024-03-29T15:26:17;13.90;71.50
67901;DHT22;54700;51.796;10.956;2024-03-29T15:28:46;13.90;70.60
67901;DHT22;54700;51.796;10.956;2024-03-29T15:31:31;13.90;71.20